sensor_id;sensor_type;location;lat;lon;timestamp;P1;durP1;ratioP1;P2;durP2;ratioP2
1837;SDS011;918;50.796;6.772;2023-11-22T00:01:48;10.30;;;9.30;;
1837;SDS011;918;50.796;6.772;2023-11-22T00:04:14;11.63;;;10.53;;
1837;SDS011;918;50.796;6.772;2023-11-22T00:06:39;11.20;;;10.20;;
1837;SDS011;918;50.796;6.772;2023-11-22T00:09:04;11.10;;;10.10;;
1837;SDS011;918;50.796;6.772;2023-11-22T00:11:30;11.40;;;10.40;;
1837;SDS011;918;50.796;6.772;2023-11-22T00:13:55;10.63;;;9.67;;
1837;SDS011;918;50.796;6.772;2023-11-22T00:16:20;12.80;;;11.17;;
1837;SDS011;918;50.796;6.772;2023-11-22T00:18:46;11.77;;;10.53;;
1837;SDS011;918;50.796;6.772;2023-11-22T00:21:11;11.53;;;10.53;;
1837;SDS011;918;50.796;6.772;2023-11-22T00:23:37;11.47;;;10.37;;
1837;SDS011;918;50.796;6.772;2023-11-22T00:26:02;11.80;;;10.63;;
1837;SDS011;918;50.796;6.772;2023-11-22T00:28:28;12.40;;;11.30;;
1837;SDS011;918;50.796;6.772;2023-11-22T00:30:53;12.83;;;11.63;;
1837;SDS011;918;50.796;6.772;2023-11-22T00:33:19;13.33;;;12.03;;
1837;SDS011;918;50.796;6.772;2023-11-22T00:35:45;13.30;;;11.50;;
1837;SDS011;918;50.796;6.772;2023-11-22T00:38:10;12.97;;;11.57;;
1837;SDS011;918;50.796;6.772;2023-11-22T00:40:35;12.90;;;11.80;;
1837;SDS011;918;50.796;6.772;2023-11-22T00:43:01;11.93;;;10.73;;
1837;SDS011;918;50.796;6.772;2023-11-22T00:45:26;13.67;;;12.37;;
1837;SDS011;918;50.796;6.772;2023-11-22T00:47:51;12.67;;;11.47;;
1837;SDS011;918;50.796;6.772;2023-11-22T00:50:17;12.20;;;11.10;;
1837;SDS011;918;50.796;6.772;2023-11-22T00:52:45;13.63;;;12.10;;
1837;SDS011;918;50.796;6.772;2023-11-22T00:55:11;13.60;;;12.40;;
1837;SDS011;918;50.796;6.772;2023-11-22T00:57:36;11.87;;;10.70;;
1837;SDS011;918;50.796;6.772;2023-11-22T01:00:02;12.70;;;11.60;;
1837;SDS011;918;50.796;6.772;2023-11-22T01:02:29;12.53;;;11.43;;
1837;SDS011;918;50.796;6.772;2023-11-22T01:04:55;14.30;;;12.90;;
1837;SDS011;918;50.796;6.772;2023-11-22T01:07:20;13.93;;;12.67;;
1837;SDS011;918;50.796;6.772;2023-11-22T01:09:45;13.30;;;12.00;;
1837;SDS011;918;50.796;6.772;2023-11-22T01:12:10;13.70;;;12.40;;
1837;SDS011;918;50.796;6.772;2023-11-22T01:14:37;14.33;;;12.93;;
1837;SDS011;918;50.796;6.772;2023-11-22T01:17:02;12.80;;;11.60;;
1837;SDS011;918;50.796;6.772;2023-11-22T01:19:27;12.70;;;11.50;;
1837;SDS011;918;50.796;6.772;2023-11-22T01:21:53;13.10;;;11.90;;
1837;SDS011;918;50.796;6.772;2023-11-22T01:24:18;13.30;;;12.10;;
1837;SDS011;918;50.796;6.772;2023-11-22T01:26:43;17.03;;;14.90;;
1837;SDS011;918;50.796;6.772;2023-11-22T01:29:09;14.77;;;13.47;;
1837;SDS011;918;50.796;6.772;2023-11-22T01:31:36;13.47;;;12.17;;
1837;SDS011;918;50.796;6.772;2023-11-22T01:34:02;13.87;;;12.47;;
1837;SDS011;918;50.796;6.772;2023-11-22T01:36:29;13.50;;;12.20;;
1837;SDS011;918;50.796;6.772;2023-11-22T01:38:54;14.43;;;12.20;;
1837;SDS011;918;50.796;6.772;2023-11-22T01:41:20;13.67;;;12.27;;
1837;SDS011;918;50.796;6.772;2023-11-22T01:43:46;14.20;;;12.80;;
1837;SDS011;918;50.796;6.772;2023-11-22T01:46:19;14.37;;;13.03;;
1837;SDS011;918;50.796;6.772;2023-11-22T01:48:47;15.50;;;12.27;;
1837;SDS011;918;50.796;6.772;2023-11-22T01:51:13;13.20;;;11.90;;
1837;SDS011;918;50.796;6.772;2023-11-22T01:53:39;20.60;;;12.20;;
1837;SDS011;918;50.796;6.772;2023-11-22T01:56:04;13.60;;;12.20;;
1837;SDS011;918;50.796;6.772;2023-11-22T01:58:29;14.23;;;12.73;;
1837;SDS011;918;50.796;6.772;2023-11-22T02:00:54;14.03;;;12.73;;
1837;SDS011;918;50.796;6.772;2023-11-22T02:03:20;13.73;;;12.33;;
1837;SDS011;918;50.796;6.772;2023-11-22T02:05:46;13.10;;;11.80;;
1837;SDS011;918;50.796;6.772;2023-11-22T02:08:12;15.60;;;13.70;;
1837;SDS011;918;50.796;6.772;2023-11-22T02:10:38;14.33;;;13.07;;
1837;SDS011;918;50.796;6.772;2023-11-22T02:13:06;13.13;;;11.83;;
1837;SDS011;918;50.796;6.772;2023-11-22T02:15:35;12.90;;;11.70;;
1837;SDS011;918;50.796;6.772;2023-11-22T02:18:00;14.40;;;12.93;;
1837;SDS011;918;50.796;6.772;2023-11-22T02:20:26;14.23;;;12.53;;
1837;SDS011;918;50.796;6.772;2023-11-22T02:22:52;13.13;;;11.87;;
1837;SDS011;918;50.796;6.772;2023-11-22T02:25:18;13.13;;;11.80;;
1837;SDS011;918;50.796;6.772;2023-11-22T02:27:43;14.07;;;12.77;;
1837;SDS011;918;50.796;6.772;2023-11-22T02:30:09;14.10;;;12.83;;
1837;SDS011;918;50.796;6.772;2023-11-22T02:32:36;14.33;;;12.93;;
1837;SDS011;918;50.796;6.772;2023-11-22T02:35:01;15.73;;;13.90;;
1837;SDS011;918;50.796;6.772;2023-11-22T02:37:27;17.07;;;14.30;;
1837;SDS011;918;50.796;6.772;2023-11-22T02:42:39;14.57;;;13.00;;
1837;SDS011;918;50.796;6.772;2023-11-22T02:45:04;13.40;;;12.17;;
1837;SDS011;918;50.796;6.772;2023-11-22T02:47:30;15.43;;;13.93;;
1837;SDS011;918;50.796;6.772;2023-11-22T02:49:56;14.30;;;12.97;;
1837;SDS011;918;50.796;6.772;2023-11-22T02:52:21;14.10;;;12.70;;
1837;SDS011;918;50.796;6.772;2023-11-22T02:54:46;14.00;;;12.60;;
1837;SDS011;918;50.796;6.772;2023-11-22T02:57:12;15.67;;;14.07;;
1837;SDS011;918;50.796;6.772;2023-11-22T02:59:41;15.53;;;14.07;;
1837;SDS011;918;50.796;6.772;2023-11-22T03:02:07;13.50;;;12.30;;
1837;SDS011;918;50.796;6.772;2023-11-22T03:04:32;14.00;;;12.60;;
1837;SDS011;918;50.796;6.772;2023-11-22T03:06:58;14.50;;;13.20;;
1837;SDS011;918;50.796;6.772;2023-11-22T03:09:23;13.77;;;12.37;;
1837;SDS011;918;50.796;6.772;2023-11-22T03:11:49;14.43;;;12.93;;
1837;SDS011;918;50.796;6.772;2023-11-22T03:14:14;13.50;;;12.20;;
1837;SDS011;918;50.796;6.772;2023-11-22T03:16:41;14.43;;;13.13;;
1837;SDS011;918;50.796;6.772;2023-11-22T03:19:07;13.63;;;12.33;;
1837;SDS011;918;50.796;6.772;2023-11-22T03:21:33;13.80;;;12.40;;
1837;SDS011;918;50.796;6.772;2023-11-22T03:24:00;14.07;;;12.67;;
1837;SDS011;918;50.796;6.772;2023-11-22T03:26:28;13.67;;;12.40;;
1837;SDS011;918;50.796;6.772;2023-11-22T03:28:54;13.97;;;12.53;;
1837;SDS011;918;50.796;6.772;2023-11-22T03:31:19;12.60;;;11.33;;
1837;SDS011;918;50.796;6.772;2023-11-22T03:33:44;13.57;;;12.07;;
1837;SDS011;918;50.796;6.772;2023-11-22T03:36:10;15.00;;;13.50;;
1837;SDS011;918;50.796;6.772;2023-11-22T03:38:36;14.67;;;13.37;;
1837;SDS011;918;50.796;6.772;2023-11-22T03:41:01;13.90;;;12.60;;
1837;SDS011;918;50.796;6.772;2023-11-22T03:43:26;13.73;;;12.37;;
1837;SDS011;918;50.796;6.772;2023-11-22T03:45:52;14.70;;;13.10;;
1837;SDS011;918;50.796;6.772;2023-11-22T03:48:17;14.50;;;13.00;;
1837;SDS011;918;50.796;6.772;2023-11-22T03:50:42;13.13;;;11.93;;
1837;SDS011;918;50.796;6.772;2023-11-22T03:53:08;13.97;;;12.57;;
1837;SDS011;918;50.796;6.772;2023-11-22T03:55:33;13.97;;;12.57;;
1837;SDS011;918;50.796;6.772;2023-11-22T03:57:59;14.37;;;12.97;;
1837;SDS011;918;50.796;6.772;2023-11-22T04:00:24;14.73;;;13.33;;
1837;SDS011;918;50.796;6.772;2023-11-22T04:02:50;15.57;;;13.97;;
1837;SDS011;918;50.796;6.772;2023-11-22T04:05:15;13.70;;;12.30;;
1837;SDS011;918;50.796;6.772;2023-11-22T04:07:40;13.27;;;11.90;;
1837;SDS011;918;50.796;6.772;2023-11-22T04:10:06;14.30;;;13.00;;
1837;SDS011;918;50.796;6.772;2023-11-22T04:12:31;13.47;;;12.13;;
1837;SDS011;918;50.796;6.772;2023-11-22T04:14:57;13.43;;;12.03;;
1837;SDS011;918;50.796;6.772;2023-11-22T04:17:22;14.70;;;13.30;;
1837;SDS011;918;50.796;6.772;2023-11-22T04:19:48;15.43;;;13.93;;
1837;SDS011;918;50.796;6.772;2023-11-22T04:22:13;14.20;;;12.90;;
1837;SDS011;918;50.796;6.772;2023-11-22T04:24:38;16.57;;;13.43;;
1837;SDS011;918;50.796;6.772;2023-11-22T04:27:04;14.57;;;13.10;;
1837;SDS011;918;50.796;6.772;2023-11-22T04:29:29;15.87;;;14.37;;
1837;SDS011;918;50.796;6.772;2023-11-22T04:31:55;14.90;;;13.27;;
1837;SDS011;918;50.796;6.772;2023-11-22T04:34:20;14.10;;;12.70;;
1837;SDS011;918;50.796;6.772;2023-11-22T04:36:45;16.20;;;13.03;;
1837;SDS011;918;50.796;6.772;2023-11-22T04:39:11;15.00;;;12.77;;
1837;SDS011;918;50.796;6.772;2023-11-22T04:41:38;14.60;;;13.20;;
1837;SDS011;918;50.796;6.772;2023-11-22T04:44:03;16.57;;;14.87;;
1837;SDS011;918;50.796;6.772;2023-11-22T04:46:29;14.57;;;13.27;;
1837;SDS011;918;50.796;6.772;2023-11-22T04:48:54;15.53;;;14.00;;
1837;SDS011;918;50.796;6.772;2023-11-22T04:51:20;14.10;;;12.53;;
1837;SDS011;918;50.796;6.772;2023-11-22T04:53:45;14.03;;;12.63;;
1837;SDS011;918;50.796;6.772;2023-11-22T04:56:10;15.10;;;13.43;;
1837;SDS011;918;50.796;6.772;2023-11-22T04:58:36;13.80;;;12.40;;
1837;SDS011;918;50.796;6.772;2023-11-22T05:01:01;14.80;;;13.03;;
1837;SDS011;918;50.796;6.772;2023-11-22T05:03:27;16.03;;;14.40;;
1837;SDS011;918;50.796;6.772;2023-11-22T05:05:52;16.63;;;14.87;;
1837;SDS011;918;50.796;6.772;2023-11-22T05:08:17;14.17;;;12.83;;
1837;SDS011;918;50.796;6.772;2023-11-22T05:10:43;15.60;;;14.00;;
1837;SDS011;918;50.796;6.772;2023-11-22T05:13:09;15.60;;;14.03;;
1837;SDS011;918;50.796;6.772;2023-11-22T05:15:34;15.40;;;13.87;;
1837;SDS011;918;50.796;6.772;2023-11-22T05:17:59;15.77;;;14.27;;
1837;SDS011;918;50.796;6.772;2023-11-22T05:20:25;16.97;;;14.90;;
1837;SDS011;918;50.796;6.772;2023-11-22T05:22:50;15.80;;;13.57;;
1837;SDS011;918;50.796;6.772;2023-11-22T05:25:15;17.50;;;13.97;;
1837;SDS011;918;50.796;6.772;2023-11-22T05:27:41;14.33;;;12.93;;
1837;SDS011;918;50.796;6.772;2023-11-22T05:30:06;14.07;;;12.87;;
1837;SDS011;918;50.796;6.772;2023-11-22T05:32:32;14.27;;;12.80;;
1837;SDS011;918;50.796;6.772;2023-11-22T05:34:58;15.10;;;13.67;;
1837;SDS011;918;50.796;6.772;2023-11-22T05:37:23;15.50;;;14.00;;
1837;SDS011;918;50.796;6.772;2023-11-22T05:39:49;14.50;;;13.10;;
1837;SDS011;918;50.796;6.772;2023-11-22T05:42:14;16.10;;;14.50;;
1837;SDS011;918;50.796;6.772;2023-11-22T05:44:39;15.80;;;14.20;;
1837;SDS011;918;50.796;6.772;2023-11-22T05:47:05;16.77;;;14.90;;
1837;SDS011;918;50.796;6.772;2023-11-22T05:49:30;15.03;;;13.50;;
1837;SDS011;918;50.796;6.772;2023-11-22T05:51:55;16.80;;;13.67;;
1837;SDS011;918;50.796;6.772;2023-11-22T05:54:20;15.60;;;13.20;;
1837;SDS011;918;50.796;6.772;2023-11-22T05:56:46;15.93;;;14.23;;
1837;SDS011;918;50.796;6.772;2023-11-22T05:59:11;16.13;;;14.53;;
1837;SDS011;918;50.796;6.772;2023-11-22T06:01:36;17.27;;;14.77;;
1837;SDS011;918;50.796;6.772;2023-11-22T06:04:01;15.97;;;14.27;;
1837;SDS011;918;50.796;6.772;2023-11-22T06:06:27;16.83;;;15.13;;
1837;SDS011;918;50.796;6.772;2023-11-22T06:08:53;23.37;;;16.23;;
1837;SDS011;918;50.796;6.772;2023-11-22T06:11:18;15.93;;;14.37;;
1837;SDS011;918;50.796;6.772;2023-11-22T06:13:44;16.73;;;15.10;;
1837;SDS011;918;50.796;6.772;2023-11-22T06:16:11;16.73;;;13.93;;
1837;SDS011;918;50.796;6.772;2023-11-22T06:18:36;16.07;;;14.37;;
1837;SDS011;918;50.796;6.772;2023-11-22T06:21:05;16.37;;;14.67;;
1837;SDS011;918;50.796;6.772;2023-11-22T06:23:31;15.63;;;14.13;;
1837;SDS011;918;50.796;6.772;2023-11-22T06:25:57;17.43;;;15.53;;
1837;SDS011;918;50.796;6.772;2023-11-22T06:28:22;18.00;;;15.13;;
1837;SDS011;918;50.796;6.772;2023-11-22T06:30:47;15.53;;;13.87;;
1837;SDS011;918;50.796;6.772;2023-11-22T06:33:13;17.80;;;14.07;;
1837;SDS011;918;50.796;6.772;2023-11-22T06:35:38;15.90;;;14.20;;
1837;SDS011;918;50.796;6.772;2023-11-22T06:38:03;16.37;;;13.67;;
1837;SDS011;918;50.796;6.772;2023-11-22T06:40:28;19.27;;;13.03;;
1837;SDS011;918;50.796;6.772;2023-11-22T06:42:54;16.80;;;15.00;;
1837;SDS011;918;50.796;6.772;2023-11-22T06:45:20;15.27;;;13.87;;
1837;SDS011;918;50.796;6.772;2023-11-22T06:47:46;16.27;;;14.30;;
1837;SDS011;918;50.796;6.772;2023-11-22T06:50:11;15.07;;;13.57;;
1837;SDS011;918;50.796;6.772;2023-11-22T06:52:40;16.70;;;14.47;;
1837;SDS011;918;50.796;6.772;2023-11-22T06:55:06;16.67;;;14.40;;
1837;SDS011;918;50.796;6.772;2023-11-22T06:57:33;17.57;;;15.53;;
1837;SDS011;918;50.796;6.772;2023-11-22T06:59:58;15.17;;;13.67;;
1837;SDS011;918;50.796;6.772;2023-11-22T07:02:26;16.17;;;14.47;;
1837;SDS011;918;50.796;6.772;2023-11-22T07:04:51;15.53;;;13.77;;
1837;SDS011;918;50.796;6.772;2023-11-22T07:07:16;15.87;;;14.27;;
1837;SDS011;918;50.796;6.772;2023-11-22T07:09:42;15.70;;;14.00;;
1837;SDS011;918;50.796;6.772;2023-11-22T07:12:08;16.27;;;14.67;;
1837;SDS011;918;50.796;6.772;2023-11-22T07:14:33;18.07;;;13.80;;
1837;SDS011;918;50.796;6.772;2023-11-22T07:16:59;14.10;;;12.63;;
1837;SDS011;918;50.796;6.772;2023-11-22T07:19:24;15.50;;;13.90;;
1837;SDS011;918;50.796;6.772;2023-11-22T07:21:50;15.33;;;13.37;;
1837;SDS011;918;50.796;6.772;2023-11-22T07:24:15;15.87;;;14.20;;
1837;SDS011;918;50.796;6.772;2023-11-22T07:26:41;15.63;;;13.30;;
1837;SDS011;918;50.796;6.772;2023-11-22T07:29:07;15.17;;;13.30;;
1837;SDS011;918;50.796;6.772;2023-11-22T07:31:33;15.37;;;13.77;;
1837;SDS011;918;50.796;6.772;2023-11-22T07:33:59;15.43;;;13.87;;
1837;SDS011;918;50.796;6.772;2023-11-22T07:36:26;17.17;;;14.63;;
1837;SDS011;918;50.796;6.772;2023-11-22T07:38:53;14.50;;;12.87;;
1837;SDS011;918;50.796;6.772;2023-11-22T07:41:18;16.87;;;14.40;;
1837;SDS011;918;50.796;6.772;2023-11-22T07:43:44;14.70;;;13.27;;
1837;SDS011;918;50.796;6.772;2023-11-22T07:46:09;15.40;;;13.90;;
1837;SDS011;918;50.796;6.772;2023-11-22T07:48:37;15.53;;;13.60;;
1837;SDS011;918;50.796;6.772;2023-11-22T07:51:03;14.53;;;13.07;;
1837;SDS011;918;50.796;6.772;2023-11-22T07:53:30;15.13;;;13.53;;
1837;SDS011;918;50.796;6.772;2023-11-22T07:55:59;16.13;;;14.43;;
1837;SDS011;918;50.796;6.772;2023-11-22T07:58:24;18.63;;;14.97;;
1837;SDS011;918;50.796;6.772;2023-11-22T08:00:50;18.67;;;15.03;;
1837;SDS011;918;50.796;6.772;2023-11-22T08:03:15;17.43;;;13.90;;
1837;SDS011;918;50.796;6.772;2023-11-22T08:05:43;16.17;;;14.50;;
1837;SDS011;918;50.796;6.772;2023-11-22T08:08:13;15.13;;;13.63;;
1837;SDS011;918;50.796;6.772;2023-11-22T08:10:38;16.77;;;13.90;;
1837;SDS011;918;50.796;6.772;2023-11-22T08:13:03;14.37;;;12.87;;
1837;SDS011;918;50.796;6.772;2023-11-22T08:15:29;16.90;;;13.47;;
1837;SDS011;918;50.796;6.772;2023-11-22T08:17:56;15.93;;;13.10;;
1837;SDS011;918;50.796;6.772;2023-11-22T08:20:22;16.23;;;14.00;;
1837;SDS011;918;50.796;6.772;2023-11-22T08:22:47;16.40;;;14.10;;
1837;SDS011;918;50.796;6.772;2023-11-22T08:25:15;15.47;;;13.77;;
1837;SDS011;918;50.796;6.772;2023-11-22T08:27:41;14.70;;;13.20;;
1837;SDS011;918;50.796;6.772;2023-11-22T08:30:07;15.83;;;13.53;;
1837;SDS011;918;50.796;6.772;2023-11-22T08:32:38;16.67;;;14.63;;
1837;SDS011;918;50.796;6.772;2023-11-22T08:35:07;16.10;;;12.67;;
1837;SDS011;918;50.796;6.772;2023-11-22T08:37:33;15.70;;;14.00;;
1837;SDS011;918;50.796;6.772;2023-11-22T08:40:00;16.10;;;14.13;;
1837;SDS011;918;50.796;6.772;2023-11-22T08:42:26;17.87;;;14.67;;
1837;SDS011;918;50.796;6.772;2023-11-22T08:44:51;14.70;;;13.07;;
1837;SDS011;918;50.796;6.772;2023-11-22T08:47:16;15.50;;;13.90;;
1837;SDS011;918;50.796;6.772;2023-11-22T08:49:42;15.90;;;13.57;;
1837;SDS011;918;50.796;6.772;2023-11-22T08:52:08;14.17;;;12.73;;
1837;SDS011;918;50.796;6.772;2023-11-22T08:54:33;13.83;;;12.33;;
1837;SDS011;918;50.796;6.772;2023-11-22T08:56:59;13.67;;;12.17;;
1837;SDS011;918;50.796;6.772;2023-11-22T08:59:25;16.03;;;14.50;;
1837;SDS011;918;50.796;6.772;2023-11-22T09:01:50;13.40;;;12.00;;
1837;SDS011;918;50.796;6.772;2023-11-22T09:04:15;13.80;;;12.40;;
1837;SDS011;918;50.796;6.772;2023-11-22T09:06:41;14.87;;;12.43;;
1837;SDS011;918;50.796;6.772;2023-11-22T09:09:07;14.70;;;12.80;;
1837;SDS011;918;50.796;6.772;2023-11-22T09:11:33;17.23;;;15.30;;
1837;SDS011;918;50.796;6.772;2023-11-22T09:13:59;17.50;;;13.97;;
1837;SDS011;918;50.796;6.772;2023-11-22T09:16:27;15.20;;;13.60;;
1837;SDS011;918;50.796;6.772;2023-11-22T09:18:52;14.90;;;13.13;;
1837;SDS011;918;50.796;6.772;2023-11-22T09:21:19;41.67;;;32.53;;
1837;SDS011;918;50.796;6.772;2023-11-22T09:23:46;14.93;;;13.43;;
1837;SDS011;918;50.796;6.772;2023-11-22T09:26:13;14.40;;;12.90;;
1837;SDS011;918;50.796;6.772;2023-11-22T09:28:39;14.97;;;12.63;;
1837;SDS011;918;50.796;6.772;2023-11-22T09:31:05;14.27;;;12.87;;
1837;SDS011;918;50.796;6.772;2023-11-22T09:33:31;15.07;;;13.13;;
1837;SDS011;918;50.796;6.772;2023-11-22T09:35:57;14.67;;;13.17;;
1837;SDS011;918;50.796;6.772;2023-11-22T09:38:28;16.53;;;14.70;;
1837;SDS011;918;50.796;6.772;2023-11-22T09:40:53;15.10;;;13.57;;
1837;SDS011;918;50.796;6.772;2023-11-22T09:43:18;14.23;;;12.73;;
1837;SDS011;918;50.796;6.772;2023-11-22T09:45:45;29.97;;;25.93;;
1837;SDS011;918;50.796;6.772;2023-11-22T09:53:31;12.60;;;11.33;;
1837;SDS011;918;50.796;6.772;2023-11-22T09:55:58;10.83;;;9.93;;
1837;SDS011;918;50.796;6.772;2023-11-22T09:58:23;10.47;;;8.63;;
1837;SDS011;918;50.796;6.772;2023-11-22T10:00:49;11.27;;;9.77;;
1837;SDS011;918;50.796;6.772;2023-11-22T10:03:15;11.50;;;10.40;;
1837;SDS011;918;50.796;6.772;2023-11-22T10:05:42;9.70;;;8.80;;
1837;SDS011;918;50.796;6.772;2023-11-22T10:08:07;10.73;;;9.73;;
1837;SDS011;918;50.796;6.772;2023-11-22T10:10:34;7.83;;;7.13;;
1837;SDS011;918;50.796;6.772;2023-11-22T10:13:01;8.57;;;7.30;;
1837;SDS011;918;50.796;6.772;2023-11-22T10:15:28;60.83;;;28.30;;
1837;SDS011;918;50.796;6.772;2023-11-22T10:17:54;12.07;;;10.87;;
1837;SDS011;918;50.796;6.772;2023-11-22T10:20:22;10.40;;;9.40;;
1837;SDS011;918;50.796;6.772;2023-11-22T10:22:53;14.50;;;12.30;;
1837;SDS011;918;50.796;6.772;2023-11-22T10:25:18;10.60;;;9.50;;
1837;SDS011;918;50.796;6.772;2023-11-22T10:27:45;9.90;;;9.10;;
1837;SDS011;918;50.796;6.772;2023-11-22T10:30:11;8.93;;;8.10;;
1837;SDS011;918;50.796;6.772;2023-11-22T10:32:37;9.40;;;8.60;;
1837;SDS011;918;50.796;6.772;2023-11-22T10:35:04;8.50;;;7.70;;
1837;SDS011;918;50.796;6.772;2023-11-22T10:37:31;10.30;;;7.93;;
1837;SDS011;918;50.796;6.772;2023-11-22T10:39:56;8.00;;;7.30;;
1837;SDS011;918;50.796;6.772;2023-11-22T10:42:21;12.53;;;8.23;;
1837;SDS011;918;50.796;6.772;2023-11-22T10:44:47;8.00;;;7.23;;
1837;SDS011;918;50.796;6.772;2023-11-22T10:47:13;7.83;;;7.03;;
1837;SDS011;918;50.796;6.772;2023-11-22T10:49:40;18.50;;;16.63;;
1837;SDS011;918;50.796;6.772;2023-11-22T10:52:07;8.90;;;8.10;;
1837;SDS011;918;50.796;6.772;2023-11-22T10:54:33;7.90;;;6.83;;
1837;SDS011;918;50.796;6.772;2023-11-22T10:57:01;10.43;;;7.90;;
1837;SDS011;918;50.796;6.772;2023-11-22T10:59:28;8.33;;;7.43;;
1837;SDS011;918;50.796;6.772;2023-11-22T11:01:56;10.03;;;7.60;;
1837;SDS011;918;50.796;6.772;2023-11-22T11:04:33;38.70;;;24.87;;
1837;SDS011;918;50.796;6.772;2023-11-22T11:07:02;13.60;;;11.73;;
1837;SDS011;918;50.796;6.772;2023-11-22T11:09:28;8.40;;;7.60;;
1837;SDS011;918;50.796;6.772;2023-11-22T11:11:57;7.23;;;6.53;;
1837;SDS011;918;50.796;6.772;2023-11-22T11:14:28;7.27;;;6.57;;
1837;SDS011;918;50.796;6.772;2023-11-22T11:16:53;9.27;;;7.67;;
1837;SDS011;918;50.796;6.772;2023-11-22T11:19:21;9.13;;;7.77;;
1837;SDS011;918;50.796;6.772;2023-11-22T11:21:47;9.20;;;7.60;;
1837;SDS011;918;50.796;6.772;2023-11-22T11:24:13;5.73;;;5.20;;
1837;SDS011;918;50.796;6.772;2023-11-22T11:26:39;7.43;;;6.17;;
1837;SDS011;918;50.796;6.772;2023-11-22T11:29:04;7.03;;;6.33;;
1837;SDS011;918;50.796;6.772;2023-11-22T11:31:31;6.40;;;5.80;;
1837;SDS011;918;50.796;6.772;2023-11-22T11:34:00;6.40;;;5.80;;
1837;SDS011;918;50.796;6.772;2023-11-22T11:36:26;9.67;;;7.83;;
1837;SDS011;918;50.796;6.772;2023-11-22T11:38:54;7.50;;;6.80;;
1837;SDS011;918;50.796;6.772;2023-11-22T11:41:54;6.93;;;6.23;;
1837;SDS011;918;50.796;6.772;2023-11-22T11:44:12;6.27;;;5.77;;
1837;SDS011;918;50.796;6.772;2023-11-22T11:46:37;7.57;;;5.20;;
1837;SDS011;918;50.796;6.772;2023-11-22T11:49:06;5.70;;;5.20;;
1837;SDS011;918;50.796;6.772;2023-11-22T11:51:33;6.23;;;5.37;;
1837;SDS011;918;50.796;6.772;2023-11-22T11:53:58;7.17;;;6.47;;
1837;SDS011;918;50.796;6.772;2023-11-22T11:56:23;6.40;;;5.80;;
1837;SDS011;918;50.796;6.772;2023-11-22T11:58:51;7.13;;;5.97;;
1837;SDS011;918;50.796;6.772;2023-11-22T12:01:17;5.87;;;5.30;;
1837;SDS011;918;50.796;6.772;2023-11-22T12:03:46;6.03;;;5.50;;
1837;SDS011;918;50.796;6.772;2023-11-22T12:06:15;6.00;;;5.10;;
1837;SDS011;918;50.796;6.772;2023-11-22T12:08:41;5.53;;;5.03;;
1837;SDS011;918;50.796;6.772;2023-11-22T12:11:07;5.37;;;4.97;;
1837;SDS011;918;50.796;6.772;2023-11-22T12:13:34;6.03;;;5.53;;
1837;SDS011;918;50.796;6.772;2023-11-22T12:16:00;6.00;;;5.40;;
1837;SDS011;918;50.796;6.772;2023-11-22T12:18:27;6.60;;;5.37;;
1837;SDS011;918;50.796;6.772;2023-11-22T12:20:57;5.70;;;5.10;;
1837;SDS011;918;50.796;6.772;2023-11-22T12:23:23;5.50;;;5.10;;
1837;SDS011;918;50.796;6.772;2023-11-22T12:25:53;8.30;;;5.53;;
1837;SDS011;918;50.796;6.772;2023-11-22T12:28:21;6.40;;;5.67;;
1837;SDS011;918;50.796;6.772;2023-11-22T12:30:47;6.53;;;5.90;;
1837;SDS011;918;50.796;6.772;2023-11-22T12:33:13;7.00;;;6.30;;
1837;SDS011;918;50.796;6.772;2023-11-22T12:35:42;6.33;;;5.77;;
1837;SDS011;918;50.796;6.772;2023-11-22T12:38:09;6.10;;;5.60;;
1837;SDS011;918;50.796;6.772;2023-11-22T12:40:34;7.17;;;6.50;;
1837;SDS011;918;50.796;6.772;2023-11-22T12:43:00;6.90;;;6.23;;
1837;SDS011;918;50.796;6.772;2023-11-22T12:45:27;6.83;;;6.13;;
1837;SDS011;918;50.796;6.772;2023-11-22T12:47:54;7.23;;;6.63;;
1837;SDS011;918;50.796;6.772;2023-11-22T12:52:59;7.03;;;6.33;;
1837;SDS011;918;50.796;6.772;2023-11-22T12:55:25;6.70;;;6.00;;
1837;SDS011;918;50.796;6.772;2023-11-22T12:57:57;7.20;;;6.60;;
1837;SDS011;918;50.796;6.772;2023-11-22T13:00:24;7.10;;;6.40;;
1837;SDS011;918;50.796;6.772;2023-11-22T13:02:50;7.63;;;6.93;;
1837;SDS011;918;50.796;6.772;2023-11-22T13:05:15;7.30;;;6.60;;
1837;SDS011;918;50.796;6.772;2023-11-22T13:07:41;7.40;;;6.20;;
1837;SDS011;918;50.796;6.772;2023-11-22T13:10:08;7.60;;;6.07;;
1837;SDS011;918;50.796;6.772;2023-11-22T13:12:34;6.27;;;5.63;;
1837;SDS011;918;50.796;6.772;2023-11-22T13:15:00;7.17;;;6.47;;
1837;SDS011;918;50.796;6.772;2023-11-22T13:17:25;6.77;;;6.07;;
1837;SDS011;918;50.796;6.772;2023-11-22T13:19:50;8.47;;;7.57;;
1837;SDS011;918;50.796;6.772;2023-11-22T13:22:15;8.47;;;7.10;;
1837;SDS011;918;50.796;6.772;2023-11-22T13:24:41;8.30;;;7.47;;
1837;SDS011;918;50.796;6.772;2023-11-22T13:27:09;9.77;;;7.70;;
1837;SDS011;918;50.796;6.772;2023-11-22T13:29:34;9.73;;;7.60;;
1837;SDS011;918;50.796;6.772;2023-11-22T13:32:00;9.80;;;7.90;;
1837;SDS011;918;50.796;6.772;2023-11-22T13:34:25;9.00;;;8.10;;
1837;SDS011;918;50.796;6.772;2023-11-22T13:36:50;9.73;;;8.83;;
1837;SDS011;918;50.796;6.772;2023-11-22T13:39:15;9.77;;;8.77;;
1837;SDS011;918;50.796;6.772;2023-11-22T13:41:41;10.17;;;9.17;;
1837;SDS011;918;50.796;6.772;2023-11-22T13:44:06;11.23;;;9.23;;
1837;SDS011;918;50.796;6.772;2023-11-22T13:46:32;8.77;;;7.93;;
1837;SDS011;918;50.796;6.772;2023-11-22T13:48:58;11.43;;;8.63;;
1837;SDS011;918;50.796;6.772;2023-11-22T13:51:23;8.03;;;6.87;;
1837;SDS011;918;50.796;6.772;2023-11-22T13:53:50;8.57;;;7.77;;
1837;SDS011;918;50.796;6.772;2023-11-22T13:56:18;7.60;;;6.90;;
1837;SDS011;918;50.796;6.772;2023-11-22T13:58:43;8.50;;;7.47;;
1837;SDS011;918;50.796;6.772;2023-11-22T14:01:09;9.13;;;8.33;;
1837;SDS011;918;50.796;6.772;2023-11-22T14:03:40;9.43;;;8.37;;
1837;SDS011;918;50.796;6.772;2023-11-22T14:06:05;10.00;;;7.63;;
1837;SDS011;918;50.796;6.772;2023-11-22T14:08:30;9.17;;;8.27;;
1837;SDS011;918;50.796;6.772;2023-11-22T14:10:56;9.03;;;7.23;;
1837;SDS011;918;50.796;6.772;2023-11-22T14:13:21;8.77;;;7.87;;
1837;SDS011;918;50.796;6.772;2023-11-22T14:15:47;9.03;;;8.20;;
1837;SDS011;918;50.796;6.772;2023-11-22T14:18:12;9.77;;;8.33;;
1837;SDS011;918;50.796;6.772;2023-11-22T14:20:37;8.93;;;8.07;;
1837;SDS011;918;50.796;6.772;2023-11-22T14:23:03;9.50;;;8.40;;
1837;SDS011;918;50.796;6.772;2023-11-22T14:25:28;8.83;;;7.87;;
1837;SDS011;918;50.796;6.772;2023-11-22T14:27:54;7.93;;;6.90;;
1837;SDS011;918;50.796;6.772;2023-11-22T14:30:21;9.83;;;8.07;;
1837;SDS011;918;50.796;6.772;2023-11-22T14:32:46;8.23;;;7.33;;
1837;SDS011;918;50.796;6.772;2023-11-22T14:35:13;8.60;;;7.33;;
1837;SDS011;918;50.796;6.772;2023-11-22T14:37:38;8.50;;;7.70;;
1837;SDS011;918;50.796;6.772;2023-11-22T14:40:07;11.57;;;7.10;;
1837;SDS011;918;50.796;6.772;2023-11-22T14:42:41;9.33;;;7.20;;
1837;SDS011;918;50.796;6.772;2023-11-22T14:45:08;7.57;;;6.60;;
1837;SDS011;918;50.796;6.772;2023-11-22T14:47:34;8.40;;;7.60;;
1837;SDS011;918;50.796;6.772;2023-11-22T14:50:01;7.80;;;6.80;;
1837;SDS011;918;50.796;6.772;2023-11-22T14:52:29;8.43;;;7.67;;
1837;SDS011;918;50.796;6.772;2023-11-22T14:54:54;8.10;;;7.40;;
1837;SDS011;918;50.796;6.772;2023-11-22T14:57:20;7.97;;;6.40;;
1837;SDS011;918;50.796;6.772;2023-11-22T14:59:46;8.17;;;7.37;;
1837;SDS011;918;50.796;6.772;2023-11-22T15:02:14;9.40;;;8.20;;
1837;SDS011;918;50.796;6.772;2023-11-22T15:04:40;8.60;;;7.77;;
1837;SDS011;918;50.796;6.772;2023-11-22T15:07:07;8.60;;;7.50;;
1837;SDS011;918;50.796;6.772;2023-11-22T15:09:32;8.83;;;6.50;;
1837;SDS011;918;50.796;6.772;2023-11-22T15:12:01;8.30;;;7.00;;
1837;SDS011;918;50.796;6.772;2023-11-22T15:14:28;8.33;;;7.53;;